sensor_id;sensor_type;location;lat;lon;timestamp;P1;durP1;ratioP1;P2;durP2;ratioP2
52934;SDS011;38802;50.198;19.796;2023-04-15T00:00:59;6.40;;;5.70;;
52934;SDS011;38802;50.198;19.796;2023-04-15T00:03:26;5.20;;;4.80;;
52934;SDS011;38802;50.198;19.796;2023-04-15T00:05:54;5.10;;;4.40;;
52934;SDS011;38802;50.198;19.796;2023-04-15T00:08:20;7.00;;;5.20;;
52934;SDS011;38802;50.198;19.796;2023-04-15T00:10:47;4.70;;;4.30;;
52934;SDS011;38802;50.198;19.796;2023-04-15T00:13:14;5.80;;;4.70;;
52934;SDS011;38802;50.198;19.796;2023-04-15T00:15:41;5.30;;;4.80;;
52934;SDS011;38802;50.198;19.796;2023-04-15T00:18:08;4.10;;;3.80;;
52934;SDS011;38802;50.198;19.796;2023-04-15T00:20:34;4.40;;;4.00;;
52934;SDS011;38802;50.198;19.796;2023-04-15T00:23:02;4.50;;;4.10;;
52934;SDS011;38802;50.198;19.796;2023-04-15T00:25:29;5.00;;;4.40;;
52934;SDS011;38802;50.198;19.796;2023-04-15T00:27:55;5.10;;;4.60;;
52934;SDS011;38802;50.198;19.796;2023-04-15T00:30:22;5.50;;;4.20;;
52934;SDS011;38802;50.198;19.796;2023-04-15T00:32:49;4.40;;;4.00;;
52934;SDS011;38802;50.198;19.796;2023-04-15T00:35:17;4.50;;;4.10;;
52934;SDS011;38802;50.198;19.796;2023-04-15T00:37:44;5.80;;;4.40;;
52934;SDS011;38802;50.198;19.796;2023-04-15T00:40:12;6.20;;;3.70;;
52934;SDS011;38802;50.198;19.796;2023-04-15T00:42:39;3.50;;;3.30;;
52934;SDS011;38802;50.198;19.796;2023-04-15T00:45:06;5.80;;;3.90;;
52934;SDS011;38802;50.198;19.796;2023-04-15T00:47:34;5.40;;;4.00;;
52934;SDS011;38802;50.198;19.796;2023-04-15T00:50:02;3.70;;;3.40;;
52934;SDS011;38802;50.198;19.796;2023-04-15T00:52:30;4.20;;;3.80;;
52934;SDS011;38802;50.198;19.796;2023-04-15T00:54:57;6.30;;;3.70;;
52934;SDS011;38802;50.198;19.796;2023-04-15T00:57:25;5.40;;;3.00;;
52934;SDS011;38802;50.198;19.796;2023-04-15T00:59:52;3.50;;;3.20;;
52934;SDS011;38802;50.198;19.796;2023-04-15T01:02:21;3.10;;;2.40;;
52934;SDS011;38802;50.198;19.796;2023-04-15T01:04:49;3.10;;;2.90;;
52934;SDS011;38802;50.198;19.796;2023-04-15T01:07:16;4.40;;;4.00;;
52934;SDS011;38802;50.198;19.796;2023-04-15T01:09:43;4.30;;;3.70;;
52934;SDS011;38802;50.198;19.796;2023-04-15T01:12:11;3.90;;;3.60;;
52934;SDS011;38802;50.198;19.796;2023-04-15T01:14:40;3.60;;;3.20;;
52934;SDS011;38802;50.198;19.796;2023-04-15T01:17:07;5.00;;;4.10;;
52934;SDS011;38802;50.198;19.796;2023-04-15T01:19:37;41.10;;;14.90;;
52934;SDS011;38802;50.198;19.796;2023-04-15T01:22:05;25.80;;;11.30;;
52934;SDS011;38802;50.198;19.796;2023-04-15T01:24:31;7.60;;;5.50;;
52934;SDS011;38802;50.198;19.796;2023-04-15T01:27:01;5.20;;;4.40;;
52934;SDS011;38802;50.198;19.796;2023-04-15T01:29:30;4.50;;;3.20;;
52934;SDS011;38802;50.198;19.796;2023-04-15T01:31:58;7.20;;;3.70;;
52934;SDS011;38802;50.198;19.796;2023-04-15T01:34:26;6.40;;;3.40;;
52934;SDS011;38802;50.198;19.796;2023-04-15T01:36:53;4.30;;;2.60;;
52934;SDS011;38802;50.198;19.796;2023-04-15T01:39:20;4.80;;;2.70;;
52934;SDS011;38802;50.198;19.796;2023-04-15T01:41:47;2.90;;;2.50;;
52934;SDS011;38802;50.198;19.796;2023-04-15T01:44:15;3.60;;;2.80;;
52934;SDS011;38802;50.198;19.796;2023-04-15T01:46:41;4.30;;;3.20;;
52934;SDS011;38802;50.198;19.796;2023-04-15T01:49:08;4.10;;;2.80;;
52934;SDS011;38802;50.198;19.796;2023-04-15T01:51:35;3.10;;;2.80;;
52934;SDS011;38802;50.198;19.796;2023-04-15T01:54:02;6.10;;;2.90;;
52934;SDS011;38802;50.198;19.796;2023-04-15T01:56:29;4.80;;;3.50;;
52934;SDS011;38802;50.198;19.796;2023-04-15T01:58:56;3.10;;;2.80;;
52934;SDS011;38802;50.198;19.796;2023-04-15T02:01:22;4.60;;;3.50;;
52934;SDS011;38802;50.198;19.796;2023-04-15T02:03:49;2.50;;;2.20;;
52934;SDS011;38802;50.198;19.796;2023-04-15T02:06:16;4.10;;;2.40;;
52934;SDS011;38802;50.198;19.796;2023-04-15T02:08:43;4.00;;;2.40;;
52934;SDS011;38802;50.198;19.796;2023-04-15T02:11:10;2.60;;;1.90;;
52934;SDS011;38802;50.198;19.796;2023-04-15T02:13:37;5.50;;;2.90;;
52934;SDS011;38802;50.198;19.796;2023-04-15T02:16:03;4.10;;;2.50;;
52934;SDS011;38802;50.198;19.796;2023-04-15T02:18:43;3.90;;;1.80;;
52934;SDS011;38802;50.198;19.796;2023-04-15T02:21:10;2.50;;;2.20;;
52934;SDS011;38802;50.198;19.796;2023-04-15T02:23:37;2.00;;;1.80;;
52934;SDS011;38802;50.198;19.796;2023-04-15T02:26:04;9.90;;;4.80;;
52934;SDS011;38802;50.198;19.796;2023-04-15T02:28:30;7.80;;;4.80;;
52934;SDS011;38802;50.198;19.796;2023-04-15T02:30:57;5.80;;;4.30;;
52934;SDS011;38802;50.198;19.796;2023-04-15T02:33:25;4.60;;;3.90;;
52934;SDS011;38802;50.198;19.796;2023-04-15T02:35:51;3.80;;;2.80;;
52934;SDS011;38802;50.198;19.796;2023-04-15T02:38:18;2.60;;;2.30;;
52934;SDS011;38802;50.198;19.796;2023-04-15T02:40:45;2.50;;;2.30;;
52934;SDS011;38802;50.198;19.796;2023-04-15T02:43:12;2.90;;;2.30;;
52934;SDS011;38802;50.198;19.796;2023-04-15T02:45:38;2.00;;;1.90;;
52934;SDS011;38802;50.198;19.796;2023-04-15T02:48:05;2.20;;;1.70;;
52934;SDS011;38802;50.198;19.796;2023-04-15T02:50:32;2.50;;;1.80;;
52934;SDS011;38802;50.198;19.796;2023-04-15T02:52:59;2.60;;;2.20;;
52934;SDS011;38802;50.198;19.796;2023-04-15T02:55:28;3.30;;;2.40;;
52934;SDS011;38802;50.198;19.796;2023-04-15T02:57:54;3.30;;;2.30;;
52934;SDS011;38802;50.198;19.796;2023-04-15T03:00:23;2.50;;;2.30;;
52934;SDS011;38802;50.198;19.796;2023-04-15T03:02:50;3.10;;;2.80;;
52934;SDS011;38802;50.198;19.796;2023-04-15T03:05:21;2.70;;;2.00;;
52934;SDS011;38802;50.198;19.796;2023-04-15T03:07:51;4.00;;;3.00;;
52934;SDS011;38802;50.198;19.796;2023-04-15T03:10:18;3.10;;;2.40;;
52934;SDS011;38802;50.198;19.796;2023-04-15T03:12:45;2.90;;;2.30;;
52934;SDS011;38802;50.198;19.796;2023-04-15T03:15:15;2.80;;;2.50;;
52934;SDS011;38802;50.198;19.796;2023-04-15T03:17:44;3.40;;;2.00;;
52934;SDS011;38802;50.198;19.796;2023-04-15T03:20:11;2.30;;;2.00;;
52934;SDS011;38802;50.198;19.796;2023-04-15T03:22:38;4.00;;;2.20;;
52934;SDS011;38802;50.198;19.796;2023-04-15T03:25:05;2.00;;;1.80;;
52934;SDS011;38802;50.198;19.796;2023-04-15T03:27:32;1.90;;;1.70;;
52934;SDS011;38802;50.198;19.796;2023-04-15T03:30:00;2.50;;;1.90;;
52934;SDS011;38802;50.198;19.796;2023-04-15T03:32:28;2.10;;;1.70;;
52934;SDS011;38802;50.198;19.796;2023-04-15T03:34:54;2.70;;;2.00;;
52934;SDS011;38802;50.198;19.796;2023-04-15T03:37:21;1.80;;;1.60;;
52934;SDS011;38802;50.198;19.796;2023-04-15T03:39:47;4.30;;;2.50;;
52934;SDS011;38802;50.198;19.796;2023-04-15T03:42:14;2.70;;;1.70;;
52934;SDS011;38802;50.198;19.796;2023-04-15T03:44:40;2.10;;;1.70;;
52934;SDS011;38802;50.198;19.796;2023-04-15T03:47:07;3.00;;;2.80;;
52934;SDS011;38802;50.198;19.796;2023-04-15T03:49:34;2.10;;;1.90;;
52934;SDS011;38802;50.198;19.796;2023-04-15T03:52:02;3.40;;;2.10;;
52934;SDS011;38802;50.198;19.796;2023-04-15T03:54:29;4.40;;;2.10;;
52934;SDS011;38802;50.198;19.796;2023-04-15T03:56:55;2.50;;;2.30;;
52934;SDS011;38802;50.198;19.796;2023-04-15T03:59:23;2.50;;;2.20;;
52934;SDS011;38802;50.198;19.796;2023-04-15T04:01:49;2.10;;;1.80;;
52934;SDS011;38802;50.198;19.796;2023-04-15T04:04:16;2.60;;;2.40;;
52934;SDS011;38802;50.198;19.796;2023-04-15T04:06:43;2.30;;;1.60;;
52934;SDS011;38802;50.198;19.796;2023-04-15T04:09:09;2.90;;;2.20;;
52934;SDS011;38802;50.198;19.796;2023-04-15T04:11:36;2.10;;;1.80;;
52934;SDS011;38802;50.198;19.796;2023-04-15T04:14:03;3.00;;;2.20;;
52934;SDS011;38802;50.198;19.796;2023-04-15T04:16:29;2.60;;;2.30;;
52934;SDS011;38802;50.198;19.796;2023-04-15T04:18:56;3.50;;;2.10;;
52934;SDS011;38802;50.198;19.796;2023-04-15T04:21:22;4.00;;;2.70;;
52934;SDS011;38802;50.198;19.796;2023-04-15T04:23:49;3.60;;;2.40;;
52934;SDS011;38802;50.198;19.796;2023-04-15T04:26:16;3.60;;;2.80;;
52934;SDS011;38802;50.198;19.796;2023-04-15T04:28:42;2.70;;;2.10;;
52934;SDS011;38802;50.198;19.796;2023-04-15T04:31:09;2.40;;;2.10;;
52934;SDS011;38802;50.198;19.796;2023-04-15T04:33:36;3.40;;;1.90;;
52934;SDS011;38802;50.198;19.796;2023-04-15T04:36:03;2.50;;;2.20;;
52934;SDS011;38802;50.198;19.796;2023-04-15T04:38:29;2.30;;;1.80;;
52934;SDS011;38802;50.198;19.796;2023-04-15T04:40:56;1.70;;;1.50;;
52934;SDS011;38802;50.198;19.796;2023-04-15T04:43:23;2.40;;;1.80;;
52934;SDS011;38802;50.198;19.796;2023-04-15T04:45:49;1.50;;;1.40;;
52934;SDS011;38802;50.198;19.796;2023-04-15T04:48:16;1.70;;;1.50;;
52934;SDS011;38802;50.198;19.796;2023-04-15T04:50:43;1.50;;;1.40;;
52934;SDS011;38802;50.198;19.796;2023-04-15T04:53:10;1.30;;;1.20;;
52934;SDS011;38802;50.198;19.796;2023-04-15T04:55:37;1.80;;;1.50;;
52934;SDS011;38802;50.198;19.796;2023-04-15T04:58:03;4.20;;;1.30;;
52934;SDS011;38802;50.198;19.796;2023-04-15T05:00:30;1.40;;;1.30;;
52934;SDS011;38802;50.198;19.796;2023-04-15T05:02:56;2.80;;;1.30;;
52934;SDS011;38802;50.198;19.796;2023-04-15T05:05:24;1.50;;;1.30;;
52934;SDS011;38802;50.198;19.796;2023-04-15T05:07:50;2.00;;;1.40;;
52934;SDS011;38802;50.198;19.796;2023-04-15T05:10:17;1.20;;;1.10;;
52934;SDS011;38802;50.198;19.796;2023-04-15T05:12:43;2.50;;;1.50;;
52934;SDS011;38802;50.198;19.796;2023-04-15T05:15:10;1.80;;;1.60;;
52934;SDS011;38802;50.198;19.796;2023-04-15T05:17:37;2.10;;;2.00;;
52934;SDS011;38802;50.198;19.796;2023-04-15T05:20:04;1.40;;;1.30;;
52934;SDS011;38802;50.198;19.796;2023-04-15T05:22:31;2.70;;;2.00;;
52934;SDS011;38802;50.198;19.796;2023-04-15T05:24:57;1.40;;;1.20;;
52934;SDS011;38802;50.198;19.796;2023-04-15T05:27:24;1.40;;;1.30;;
52934;SDS011;38802;50.198;19.796;2023-04-15T05:29:51;3.00;;;1.70;;
52934;SDS011;38802;50.198;19.796;2023-04-15T05:32:17;1.90;;;1.60;;
52934;SDS011;38802;50.198;19.796;2023-04-15T05:34:44;1.90;;;1.60;;
52934;SDS011;38802;50.198;19.796;2023-04-15T05:37:11;2.00;;;1.60;;
52934;SDS011;38802;50.198;19.796;2023-04-15T05:39:38;2.20;;;1.10;;
52934;SDS011;38802;50.198;19.796;2023-04-15T05:42:04;2.90;;;1.30;;
52934;SDS011;38802;50.198;19.796;2023-04-15T05:44:32;1.40;;;1.30;;
52934;SDS011;38802;50.198;19.796;2023-04-15T05:46:58;1.60;;;1.40;;
52934;SDS011;38802;50.198;19.796;2023-04-15T05:49:26;2.30;;;1.40;;
52934;SDS011;38802;50.198;19.796;2023-04-15T05:51:52;2.40;;;1.20;;
52934;SDS011;38802;50.198;19.796;2023-04-15T05:54:19;1.60;;;1.50;;
52934;SDS011;38802;50.198;19.796;2023-04-15T05:56:47;1.50;;;1.30;;
52934;SDS011;38802;50.198;19.796;2023-04-15T05:59:14;1.80;;;1.70;;
52934;SDS011;38802;50.198;19.796;2023-04-15T06:01:41;3.30;;;1.80;;
52934;SDS011;38802;50.198;19.796;2023-04-15T06:04:08;2.70;;;2.10;;
52934;SDS011;38802;50.198;19.796;2023-04-15T06:06:35;2.70;;;2.00;;
52934;SDS011;38802;50.198;19.796;2023-04-15T06:09:01;1.80;;;1.50;;
52934;SDS011;38802;50.198;19.796;2023-04-15T06:11:28;1.70;;;1.60;;
52934;SDS011;38802;50.198;19.796;2023-04-15T06:13:55;5.30;;;2.10;;
52934;SDS011;38802;50.198;19.796;2023-04-15T06:16:21;3.30;;;2.20;;
52934;SDS011;38802;50.198;19.796;2023-04-15T06:18:48;2.90;;;2.60;;
52934;SDS011;38802;50.198;19.796;2023-04-15T06:21:15;2.80;;;2.00;;
52934;SDS011;38802;50.198;19.796;2023-04-15T06:23:41;3.80;;;2.30;;
52934;SDS011;38802;50.198;19.796;2023-04-15T06:26:08;2.20;;;2.00;;
52934;SDS011;38802;50.198;19.796;2023-04-15T06:28:34;4.10;;;2.30;;
52934;SDS011;38802;50.198;19.796;2023-04-15T06:31:01;4.10;;;2.90;;
52934;SDS011;38802;50.198;19.796;2023-04-15T06:33:28;4.80;;;4.10;;
52934;SDS011;38802;50.198;19.796;2023-04-15T06:35:55;4.60;;;3.60;;
52934;SDS011;38802;50.198;19.796;2023-04-15T06:38:21;3.80;;;3.40;;
52934;SDS011;38802;50.198;19.796;2023-04-15T06:40:48;3.60;;;3.30;;
52934;SDS011;38802;50.198;19.796;2023-04-15T06:43:15;4.00;;;3.00;;
52934;SDS011;38802;50.198;19.796;2023-04-15T06:45:41;3.60;;;2.50;;
52934;SDS011;38802;50.198;19.796;2023-04-15T06:48:08;5.90;;;2.20;;
52934;SDS011;38802;50.198;19.796;2023-04-15T06:50:35;3.20;;;2.40;;
52934;SDS011;38802;50.198;19.796;2023-04-15T06:53:01;5.20;;;3.80;;
52934;SDS011;38802;50.198;19.796;2023-04-15T06:55:28;5.10;;;3.20;;
52934;SDS011;38802;50.198;19.796;2023-04-15T06:57:57;5.20;;;4.00;;
52934;SDS011;38802;50.198;19.796;2023-04-15T07:00:23;6.80;;;4.20;;
52934;SDS011;38802;50.198;19.796;2023-04-15T07:02:50;5.40;;;3.40;;
52934;SDS011;38802;50.198;19.796;2023-04-15T07:05:17;6.50;;;3.50;;
52934;SDS011;38802;50.198;19.796;2023-04-15T07:07:44;5.80;;;3.50;;
52934;SDS011;38802;50.198;19.796;2023-04-15T07:10:11;3.30;;;2.90;;
52934;SDS011;38802;50.198;19.796;2023-04-15T07:12:38;3.40;;;2.60;;
52934;SDS011;38802;50.198;19.796;2023-04-15T07:15:04;9.30;;;3.70;;
52934;SDS011;38802;50.198;19.796;2023-04-15T07:17:32;5.00;;;3.20;;
52934;SDS011;38802;50.198;19.796;2023-04-15T07:19:58;3.80;;;3.20;;
52934;SDS011;38802;50.198;19.796;2023-04-15T07:22:25;3.50;;;3.20;;
52934;SDS011;38802;50.198;19.796;2023-04-15T07:24:51;3.50;;;3.20;;
52934;SDS011;38802;50.198;19.796;2023-04-15T07:27:18;4.40;;;3.50;;
52934;SDS011;38802;50.198;19.796;2023-04-15T07:29:45;3.20;;;3.00;;
52934;SDS011;38802;50.198;19.796;2023-04-15T07:32:11;3.70;;;3.20;;
52934;SDS011;38802;50.198;19.796;2023-04-15T07:34:38;4.60;;;4.00;;
52934;SDS011;38802;50.198;19.796;2023-04-15T07:37:05;4.10;;;3.70;;
52934;SDS011;38802;50.198;19.796;2023-04-15T07:39:31;4.80;;;4.40;;
52934;SDS011;38802;50.198;19.796;2023-04-15T07:41:58;4.60;;;4.20;;
52934;SDS011;38802;50.198;19.796;2023-04-15T07:44:25;5.50;;;4.20;;
52934;SDS011;38802;50.198;19.796;2023-04-15T07:46:52;5.80;;;5.20;;
52934;SDS011;38802;50.198;19.796;2023-04-15T07:49:19;11.20;;;7.50;;
52934;SDS011;38802;50.198;19.796;2023-04-15T07:51:46;6.60;;;6.00;;
52934;SDS011;38802;50.198;19.796;2023-04-15T07:54:14;5.70;;;5.20;;
52934;SDS011;38802;50.198;19.796;2023-04-15T07:56:41;4.60;;;4.20;;
52934;SDS011;38802;50.198;19.796;2023-04-15T07:59:08;4.00;;;3.60;;
52934;SDS011;38802;50.198;19.796;2023-04-15T08:01:35;3.90;;;3.40;;
52934;SDS011;38802;50.198;19.796;2023-04-15T08:04:02;4.20;;;3.80;;
52934;SDS011;38802;50.198;19.796;2023-04-15T08:06:29;4.60;;;4.10;;
52934;SDS011;38802;50.198;19.796;2023-04-15T08:08:56;6.80;;;4.20;;
52934;SDS011;38802;50.198;19.796;2023-04-15T08:11:23;4.00;;;3.60;;
52934;SDS011;38802;50.198;19.796;2023-04-15T08:13:50;3.80;;;3.40;;
52934;SDS011;38802;50.198;19.796;2023-04-15T08:16:21;5.20;;;4.40;;
52934;SDS011;38802;50.198;19.796;2023-04-15T08:18:55;4.80;;;4.30;;
52934;SDS011;38802;50.198;19.796;2023-04-15T08:21:22;3.30;;;3.00;;
52934;SDS011;38802;50.198;19.796;2023-04-15T08:23:50;5.10;;;2.70;;
52934;SDS011;38802;50.198;19.796;2023-04-15T08:26:18;6.40;;;2.60;;
52934;SDS011;38802;50.198;19.796;2023-04-15T08:28:47;4.10;;;2.70;;
52934;SDS011;38802;50.198;19.796;2023-04-15T08:31:15;6.50;;;3.30;;
52934;SDS011;38802;50.198;19.796;2023-04-15T08:33:42;3.20;;;2.00;;
52934;SDS011;38802;50.198;19.796;2023-04-15T08:36:09;2.80;;;2.20;;
52934;SDS011;38802;50.198;19.796;2023-04-15T08:38:36;2.70;;;2.00;;
52934;SDS011;38802;50.198;19.796;2023-04-15T08:41:03;2.80;;;2.10;;
52934;SDS011;38802;50.198;19.796;2023-04-15T08:43:34;2.70;;;1.80;;
52934;SDS011;38802;50.198;19.796;2023-04-15T08:46:07;2.80;;;1.40;;
52934;SDS011;38802;50.198;19.796;2023-04-15T08:48:35;2.70;;;2.00;;
52934;SDS011;38802;50.198;19.796;2023-04-15T08:51:04;1.90;;;1.70;;
52934;SDS011;38802;50.198;19.796;2023-04-15T08:53:31;1.50;;;1.40;;
52934;SDS011;38802;50.198;19.796;2023-04-15T08:55:58;3.00;;;1.80;;
52934;SDS011;38802;50.198;19.796;2023-04-15T08:58:30;1.50;;;1.40;;
52934;SDS011;38802;50.198;19.796;2023-04-15T09:00:56;1.60;;;1.50;;
52934;SDS011;38802;50.198;19.796;2023-04-15T09:03:24;2.60;;;1.80;;
52934;SDS011;38802;50.198;19.796;2023-04-15T09:05:51;2.50;;;1.80;;
52934;SDS011;38802;50.198;19.796;2023-04-15T09:08:19;1.80;;;1.20;;
52934;SDS011;38802;50.198;19.796;2023-04-15T09:10:46;2.10;;;1.50;;
52934;SDS011;38802;50.198;19.796;2023-04-15T09:13:13;1.60;;;1.40;;
52934;SDS011;38802;50.198;19.796;2023-04-15T09:15:39;2.00;;;1.30;;
52934;SDS011;38802;50.198;19.796;2023-04-15T09:18:06;1.10;;;1.00;;
52934;SDS011;38802;50.198;19.796;2023-04-15T09:20:41;2.00;;;1.50;;
52934;SDS011;38802;50.198;19.796;2023-04-15T09:23:12;3.70;;;1.70;;
52934;SDS011;38802;50.198;19.796;2023-04-15T09:25:40;3.10;;;1.60;;
52934;SDS011;38802;50.198;19.796;2023-04-15T09:28:07;2.10;;;1.70;;
52934;SDS011;38802;50.198;19.796;2023-04-15T09:30:34;3.10;;;1.50;;
52934;SDS011;38802;50.198;19.796;2023-04-15T09:33:05;2.10;;;1.80;;
52934;SDS011;38802;50.198;19.796;2023-04-15T09:35:36;2.90;;;1.80;;
52934;SDS011;38802;50.198;19.796;2023-04-15T09:38:03;2.60;;;1.60;;
52934;SDS011;38802;50.198;19.796;2023-04-15T09:42:59;2.80;;;1.70;;
52934;SDS011;38802;50.198;19.796;2023-04-15T09:45:27;2.60;;;2.40;;
52934;SDS011;38802;50.198;19.796;2023-04-15T09:47:59;1.80;;;1.50;;
52934;SDS011;38802;50.198;19.796;2023-04-15T09:50:41;2.90;;;1.80;;
52934;SDS011;38802;50.198;19.796;2023-04-15T09:53:09;2.50;;;1.90;;
52934;SDS011;38802;50.198;19.796;2023-04-15T09:55:37;2.10;;;1.70;;
52934;SDS011;38802;50.198;19.796;2023-04-15T09:58:07;2.60;;;1.70;;
52934;SDS011;38802;50.198;19.796;2023-04-15T10:00:35;2.30;;;1.80;;
52934;SDS011;38802;50.198;19.796;2023-04-15T10:03:04;2.20;;;1.80;;
52934;SDS011;38802;50.198;19.796;2023-04-15T10:05:32;2.20;;;1.60;;
52934;SDS011;38802;50.198;19.796;2023-04-15T10:07:59;3.50;;;2.30;;
52934;SDS011;38802;50.198;19.796;2023-04-15T10:10:27;3.30;;;2.30;;
52934;SDS011;38802;50.198;19.796;2023-04-15T10:12:54;2.50;;;1.60;;
52934;SDS011;38802;50.198;19.796;2023-04-15T10:15:21;3.50;;;2.40;;
52934;SDS011;38802;50.198;19.796;2023-04-15T10:17:49;5.70;;;1.60;;
52934;SDS011;38802;50.198;19.796;2023-04-15T10:20:19;3.90;;;3.00;;
52934;SDS011;38802;50.198;19.796;2023-04-15T10:22:47;2.90;;;2.50;;
52934;SDS011;38802;50.198;19.796;2023-04-15T10:25:14;3.20;;;2.30;;
52934;SDS011;38802;50.198;19.796;2023-04-15T10:27:41;2.40;;;2.10;;
52934;SDS011;38802;50.198;19.796;2023-04-15T10:30:08;5.10;;;2.00;;
52934;SDS011;38802;50.198;19.796;2023-04-15T10:32:36;1.70;;;1.60;;
52934;SDS011;38802;50.198;19.796;2023-04-15T10:35:04;3.90;;;2.20;;
52934;SDS011;38802;50.198;19.796;2023-04-15T10:37:33;3.00;;;2.70;;
52934;SDS011;38802;50.198;19.796;2023-04-15T10:40:23;5.60;;;2.30;;
52934;SDS011;38802;50.198;19.796;2023-04-15T10:42:53;2.60;;;2.10;;
52934;SDS011;38802;50.198;19.796;2023-04-15T10:45:21;2.60;;;1.80;;
52934;SDS011;38802;50.198;19.796;2023-04-15T10:48:30;2.30;;;2.00;;
52934;SDS011;38802;50.198;19.796;2023-04-15T10:50:57;2.60;;;2.30;;
52934;SDS011;38802;50.198;19.796;2023-04-15T10:53:27;2.40;;;1.50;;
52934;SDS011;38802;50.198;19.796;2023-04-15T10:55:54;4.70;;;1.70;;
52934;SDS011;38802;50.198;19.796;2023-04-15T10:58:23;2.50;;;1.60;;
52934;SDS011;38802;50.198;19.796;2023-04-15T11:00:51;2.40;;;1.80;;
52934;SDS011;38802;50.198;19.796;2023-04-15T11:03:33;4.20;;;1.70;;
52934;SDS011;38802;50.198;19.796;2023-04-15T11:06:03;1.70;;;1.60;;
52934;SDS011;38802;50.198;19.796;2023-04-15T11:08:53;4.30;;;1.90;;
52934;SDS011;38802;50.198;19.796;2023-04-15T11:11:22;2.90;;;2.00;;
52934;SDS011;38802;50.198;19.796;2023-04-15T11:13:49;2.80;;;2.30;;
52934;SDS011;38802;50.198;19.796;2023-04-15T11:16:18;3.00;;;1.80;;
52934;SDS011;38802;50.198;19.796;2023-04-15T11:18:54;1.90;;;1.60;;
52934;SDS011;38802;50.198;19.796;2023-04-15T11:21:23;1.80;;;1.60;;
52934;SDS011;38802;50.198;19.796;2023-04-15T11:23:51;4.00;;;2.30;;
52934;SDS011;38802;50.198;19.796;2023-04-15T11:26:18;2.70;;;2.20;;
52934;SDS011;38802;50.198;19.796;2023-04-15T11:28:45;4.50;;;2.40;;
52934;SDS011;38802;50.198;19.796;2023-04-15T11:31:13;2.10;;;1.90;;
52934;SDS011;38802;50.198;19.796;2023-04-15T11:34:01;1.90;;;1.70;;
52934;SDS011;38802;50.198;19.796;2023-04-15T11:36:31;2.80;;;2.20;;
52934;SDS011;38802;50.198;19.796;2023-04-15T11:38:58;2.50;;;1.60;;
52934;SDS011;38802;50.198;19.796;2023-04-15T11:41:25;4.10;;;2.10;;
52934;SDS011;38802;50.198;19.796;2023-04-15T11:43:51;1.80;;;1.70;;
52934;SDS011;38802;50.198;19.796;2023-04-15T11:46:19;2.30;;;1.90;;
52934;SDS011;38802;50.198;19.796;2023-04-15T11:48:47;2.50;;;2.30;;
52934;SDS011;38802;50.198;19.796;2023-04-15T11:51:13;2.30;;;2.00;;
52934;SDS011;38802;50.198;19.796;2023-04-15T11:53:44;2.70;;;2.20;;
52934;SDS011;38802;50.198;19.796;2023-04-15T11:56:16;2.20;;;1.90;;
52934;SDS011;38802;50.198;19.796;2023-04-15T11:58:47;2.20;;;2.00;;
52934;SDS011;38802;50.198;19.796;2023-04-15T12:01:17;2.30;;;2.10;;
52934;SDS011;38802;50.198;19.796;2023-04-15T12:03:44;2.80;;;2.20;;
52934;SDS011;38802;50.198;19.796;2023-04-15T12:06:22;2.70;;;2.30;;
52934;SDS011;38802;50.198;19.796;2023-04-15T12:11:16;2.80;;;2.60;;
52934;SDS011;38802;50.198;19.796;2023-04-15T12:13:46;4.00;;;2.70;;
52934;SDS011;38802;50.198;19.796;2023-04-15T12:16:18;4.40;;;2.70;;
52934;SDS011;38802;50.198;19.796;2023-04-15T12:18:46;3.70;;;3.40;;
52934;SDS011;38802;50.198;19.796;2023-04-15T12:21:13;2.70;;;2.20;;
52934;SDS011;38802;50.198;19.796;2023-04-15T12:23:50;2.70;;;2.40;;
52934;SDS011;38802;50.198;19.796;2023-04-15T12:26:24;3.10;;;2.80;;
52934;SDS011;38802;50.198;19.796;2023-04-15T12:29:06;4.80;;;3.30;;
52934;SDS011;38802;50.198;19.796;2023-04-15T12:31:34;4.00;;;3.00;;
52934;SDS011;38802;50.198;19.796;2023-04-15T12:34:02;1.90;;;1.70;;
52934;SDS011;38802;50.198;19.796;2023-04-15T12:36:33;2.90;;;2.30;;
52934;SDS011;38802;50.198;19.796;2023-04-15T12:39:02;5.00;;;2.90;;
52934;SDS011;38802;50.198;19.796;2023-04-15T12:41:30;2.40;;;2.00;;
52934;SDS011;38802;50.198;19.796;2023-04-15T12:43:58;2.40;;;1.90;;
52934;SDS011;38802;50.198;19.796;2023-04-15T12:46:25;2.90;;;1.90;;
52934;SDS011;38802;50.198;19.796;2023-04-15T12:48:52;2.30;;;1.90;;
52934;SDS011;38802;50.198;19.796;2023-04-15T12:51:19;2.40;;;2.00;;
52934;SDS011;38802;50.198;19.796;2023-04-15T12:53:49;4.30;;;3.30;;
52934;SDS011;38802;50.198;19.796;2023-04-15T12:56:16;15.90;;;8.50;;
52934;SDS011;38802;50.198;19.796;2023-04-15T12:58:43;24.40;;;14.10;;
52934;SDS011;38802;50.198;19.796;2023-04-15T13:01:10;7.70;;;6.40;;
52934;SDS011;38802;50.198;19.796;2023-04-15T13:03:36;7.00;;;5.40;;
52934;SDS011;38802;50.198;19.796;2023-04-15T13:06:03;9.40;;;6.50;;
52934;SDS011;38802;50.198;19.796;2023-04-15T13:08:31;5.40;;;4.10;;
52934;SDS011;38802;50.198;19.796;2023-04-15T13:10:59;4.40;;;3.30;;
52934;SDS011;38802;50.198;19.796;2023-04-15T13:13:26;4.50;;;2.70;;
52934;SDS011;38802;50.198;19.796;2023-04-15T13:15:53;3.10;;;2.70;;
52934;SDS011;38802;50.198;19.796;2023-04-15T13:18:20;3.70;;;2.70;;
52934;SDS011;38802;50.198;19.796;2023-04-15T13:20:46;3.70;;;2.80;;
52934;SDS011;38802;50.198;19.796;2023-04-15T13:23:13;5.60;;;2.50;;
52934;SDS011;38802;50.198;19.796;2023-04-15T13:25:40;3.30;;;2.40;;
52934;SDS011;38802;50.198;19.796;2023-04-15T13:28:08;2.50;;;2.30;;
52934;SDS011;38802;50.198;19.796;2023-04-15T13:30:37;5.30;;;3.20;;
52934;SDS011;38802;50.198;19.796;2023-04-15T13:33:04;3.90;;;3.50;;
52934;SDS011;38802;50.198;19.796;2023-04-15T13:35:31;5.50;;;3.20;;
52934;SDS011;38802;50.198;19.796;2023-04-15T13:37:59;4.70;;;4.30;;
52934;SDS011;38802;50.198;19.796;2023-04-15T13:40:25;5.20;;;4.70;;
52934;SDS011;38802;50.198;19.796;2023-04-15T13:42:52;3.40;;;3.20;;
52934;SDS011;38802;50.198;19.796;2023-04-15T13:45:19;2.80;;;2.60;;
52934;SDS011;38802;50.198;19.796;2023-04-15T13:47:45;3.20;;;2.70;;
52934;SDS011;38802;50.198;19.796;2023-04-15T13:50:12;5.00;;;2.50;;
52934;SDS011;38802;50.198;19.796;2023-04-15T13:52:38;4.10;;;2.20;;
52934;SDS011;38802;50.198;19.796;2023-04-15T13:55:05;2.50;;;2.30;;
52934;SDS011;38802;50.198;19.796;2023-04-15T13:57:45;3.30;;;2.90;;
52934;SDS011;38802;50.198;19.796;2023-04-15T14:00:12;3.10;;;2.60;;
52934;SDS011;38802;50.198;19.796;2023-04-15T14:02:39;2.70;;;2.50;;
52934;SDS011;38802;50.198;19.796;2023-04-15T14:05:07;3.40;;;2.60;;
52934;SDS011;38802;50.198;19.796;2023-04-15T14:07:34;2.40;;;2.00;;
52934;SDS011;38802;50.198;19.796;2023-04-15T14:10:01;2.80;;;2.60;;
52934;SDS011;38802;50.198;19.796;2023-04-15T14:12:29;5.10;;;3.40;;
52934;SDS011;38802;50.198;19.796;2023-04-15T14:15:10;3.70;;;3.00;;
52934;SDS011;38802;50.198;19.796;2023-04-15T14:17:37;3.30;;;3.00;;
52934;SDS011;38802;50.198;19.796;2023-04-15T14:20:06;4.20;;;2.80;;
52934;SDS011;38802;50.198;19.796;2023-04-15T14:22:33;3.30;;;3.00;;
52934;SDS011;38802;50.198;19.796;2023-04-15T14:25:00;3.80;;;3.10;;
52934;SDS011;38802;50.198;19.796;2023-04-15T14:27:27;3.90;;;3.50;;
52934;SDS011;38802;50.198;19.796;2023-04-15T14:29:53;7.40;;;3.90;;
52934;SDS011;38802;50.198;19.796;2023-04-15T14:32:21;4.00;;;2.70;;
52934;SDS011;38802;50.198;19.796;2023-04-15T14:34:48;3.20;;;2.80;;
52934;SDS011;38802;50.198;19.796;2023-04-15T14:37:14;3.20;;;2.90;;
52934;SDS011;38802;50.198;19.796;2023-04-15T14:39:41;2.70;;;2.50;;
52934;SDS011;38802;50.198;19.796;2023-04-15T14:42:08;3.10;;;2.80;;